createdAt,value
2022-12-20T00:02:17.931Z,16.97
2022-12-20T00:06:19.963Z,16.57
2022-12-20T00:10:21.803Z,17.83
2022-12-20T00:14:23.595Z,16.13
2022-12-20T00:18:25.367Z,16.33
2022-12-20T00:22:27.143Z,15.80
2022-12-20T00:26:30.803Z,16.90
2022-12-20T00:30:32.579Z,16.43
2022-12-20T00:34:34.391Z,16.73
2022-12-20T00:38:36.394Z,16.60
2022-12-20T00:42:38.208Z,18.77
2022-12-20T00:46:40.059Z,16.87
2022-12-20T00:50:41.897Z,17.23
2022-12-20T00:54:43.747Z,16.50
2022-12-20T00:58:45.566Z,17.33
2022-12-20T01:02:47.690Z,16.87
2022-12-20T01:06:49.701Z,18.33
2022-12-20T01:11:17.842Z,17.80
2022-12-20T01:15:19.985Z,15.77
2022-12-20T01:19:21.859Z,16.97
2022-12-20T01:23:23.669Z,17.53
2022-12-20T01:27:25.441Z,16.37
2022-12-20T01:31:28.064Z,17.53
2022-12-20T01:35:29.898Z,17.90
2022-12-20T01:39:31.729Z,17.43
2022-12-20T01:43:57.691Z,17.80
2022-12-20T01:47:59.491Z,16.47
2022-12-20T01:52:31.094Z,17.50
2022-12-20T01:56:32.947Z,17.63
2022-12-20T02:00:34.805Z,16.73
2022-12-20T02:04:36.726Z,17.30
2022-12-20T02:08:38.518Z,17.83
2022-12-20T02:12:41.788Z,19.73
2022-12-20T02:17:23.152Z,19.53
2022-12-20T02:21:29.115Z,18.77
2022-12-20T02:25:42.947Z,18.90
2022-12-20T02:30:21.231Z,20.40
2022-12-20T02:34:25.066Z,16.67
2022-12-20T02:38:36.211Z,16.40
2022-12-20T02:42:38.065Z,20.83
2022-12-20T02:46:39.889Z,18.13
2022-12-20T02:50:49.516Z,16.50
2022-12-20T02:54:51.299Z,17.50
2022-12-20T02:59:09.305Z,18.37
2022-12-20T03:03:29.155Z,15.90
2022-12-20T03:07:31.022Z,18.13
2022-12-20T03:11:40.040Z,16.10
2022-12-20T03:15:48.033Z,15.83
2022-12-20T03:19:56.061Z,17.60
2022-12-20T03:24:11.040Z,17.60
2022-12-20T03:28:13.016Z,17.07
2022-12-20T03:32:15.389Z,17.87
2022-12-20T03:36:17.277Z,17.37
2022-12-20T03:40:19.313Z,18.50
2022-12-20T03:44:23.306Z,17.27
2022-12-20T03:48:25.144Z,15.87
2022-12-20T03:52:27.004Z,17.97
2022-12-20T03:56:28.767Z,16.37
2022-12-20T04:00:30.580Z,20.40
2022-12-20T04:04:32.597Z,20.80
2022-12-20T04:08:34.418Z,19.77
2022-12-20T04:12:36.225Z,20.80
2022-12-20T04:16:38.246Z,19.93
2022-12-20T04:20:40.220Z,20.33
2022-12-20T04:24:42.014Z,20.83
2022-12-20T04:28:43.840Z,20.80
2022-12-20T04:32:45.730Z,21.23
2022-12-20T04:36:47.696Z,20.70
2022-12-20T04:40:50.507Z,19.80
2022-12-20T04:44:52.363Z,22.23
2022-12-20T04:48:57.839Z,21.40
2022-12-20T04:53:18.960Z,20.53
2022-12-20T04:57:20.766Z,21.43
2022-12-20T05:01:22.995Z,20.07
2022-12-20T05:05:25.164Z,21.63
2022-12-20T05:09:27.043Z,20.97
2022-12-20T05:13:28.981Z,20.40
2022-12-20T05:17:30.753Z,20.83
2022-12-20T05:21:51.010Z,20.90
2022-12-20T05:26:12.050Z,21.87
2022-12-20T05:30:14.108Z,20.30
2022-12-20T05:34:16.018Z,21.00
2022-12-20T05:38:17.807Z,17.53
2022-12-20T05:42:19.636Z,15.70
2022-12-20T05:46:21.574Z,16.33
2022-12-20T05:50:23.564Z,18.80
2022-12-20T05:54:25.653Z,17.63
2022-12-20T05:58:27.831Z,15.87
2022-12-20T06:02:31.186Z,15.83
2022-12-20T06:06:33.664Z,15.33
2022-12-20T06:10:42.942Z,15.20
2022-12-20T06:14:44.879Z,16.00
2022-12-20T06:18:47.259Z,16.83
2022-12-20T06:22:49.363Z,14.13
2022-12-20T06:26:52.138Z,18.47
2022-12-20T06:30:57.942Z,17.10
2022-12-20T06:34:59.891Z,17.13
2022-12-20T06:39:09.230Z,17.60
2022-12-20T06:43:11.820Z,17.67
2022-12-20T06:47:16.846Z,17.97
2022-12-20T06:51:19.165Z,18.03
2022-12-20T06:55:21.410Z,18.47
2022-12-20T06:59:23.486Z,18.07
2022-12-20T07:03:28.317Z,18.13
2022-12-20T07:07:30.872Z,17.93
2022-12-20T07:11:32.761Z,18.40
2022-12-20T07:15:35.240Z,18.33
2022-12-20T07:19:37.288Z,18.37
2022-12-20T07:23:39.133Z,17.57
2022-12-20T07:27:41.339Z,17.53
2022-12-20T07:31:43.254Z,17.13
2022-12-20T07:35:50.946Z,16.77
2022-12-20T07:39:56.202Z,16.83
2022-12-20T07:43:59.380Z,18.83
2022-12-20T07:48:08.664Z,18.57
2022-12-20T07:52:13.075Z,17.93
2022-12-20T07:56:14.940Z,17.43
2022-12-20T08:00:18.757Z,18.87
2022-12-20T08:04:26.385Z,18.87
2022-12-20T08:08:28.237Z,19.93
2022-12-20T08:12:30.067Z,19.37
2022-12-20T08:16:31.886Z,19.40
2022-12-20T08:20:33.876Z,19.77
2022-12-20T08:24:35.956Z,18.83
2022-12-20T08:28:37.947Z,20.53
2022-12-20T08:32:39.721Z,18.83
2022-12-20T08:36:41.533Z,19.70
2022-12-20T08:40:43.311Z,20.00
2022-12-20T08:44:45.425Z,18.53
2022-12-20T08:48:47.255Z,19.17
2022-12-20T08:52:49.106Z,19.77
2022-12-20T08:56:50.962Z,20.13
2022-12-20T09:00:52.814Z,20.57
2022-12-20T09:04:54.711Z,19.73
2022-12-20T09:08:56.581Z,20.40
2022-12-20T09:12:58.510Z,20.73
2022-12-20T09:17:00.350Z,19.97
2022-12-20T09:21:03.780Z,20.00
2022-12-20T09:25:07.217Z,20.07
2022-12-20T09:29:09.244Z,19.20
2022-12-20T09:33:11.148Z,19.87
2022-12-20T09:37:12.913Z,20.00
2022-12-20T09:41:43.019Z,20.10
2022-12-20T09:45:47.160Z,21.20
2022-12-20T09:49:53.368Z,20.17
2022-12-20T09:54:13.972Z,21.17
2022-12-20T09:58:37.782Z,21.67
2022-12-20T10:03:01.917Z,21.40
2022-12-20T10:07:45.828Z,20.10
2022-12-20T10:12:13.636Z,19.20
2022-12-20T10:16:48.119Z,20.07
2022-12-20T10:20:58.198Z,21.13
2022-12-20T10:25:07.456Z,19.90
2022-12-20T10:29:09.442Z,20.13
2022-12-20T10:33:24.158Z,20.17
2022-12-20T10:37:25.994Z,20.70
2022-12-20T10:41:44.742Z,20.53
2022-12-20T10:45:57.696Z,20.73
2022-12-20T10:50:17.100Z,20.90
2022-12-20T10:54:29.963Z,19.83
2022-12-20T10:58:35.439Z,20.40
2022-12-20T11:02:42.603Z,20.57
2022-12-20T11:06:45.373Z,19.93
2022-12-20T11:10:47.417Z,20.13
2022-12-20T11:14:49.419Z,20.43
2022-12-20T11:19:30.389Z,19.13
2022-12-20T11:23:58.199Z,19.67
2022-12-20T11:28:14.718Z,19.97
2022-12-20T11:32:48.934Z,19.97
2022-12-20T11:37:18.198Z,19.03
2022-12-20T11:41:29.496Z,19.70
2022-12-20T11:46:17.123Z,20.13
2022-12-20T11:50:44.572Z,19.50
2022-12-20T11:54:58.933Z,19.80
2022-12-20T11:59:05.697Z,20.53
2022-12-20T12:03:21.920Z,20.23
2022-12-20T12:07:29.054Z,19.63
2022-12-20T12:12:05.162Z,21.20
2022-12-20T12:16:11.204Z,21.20
2022-12-20T12:20:21.957Z,19.17
2022-12-20T12:24:36.008Z,20.87
2022-12-20T12:28:40.238Z,21.90
2022-12-20T12:32:53.749Z,21.03
2022-12-20T12:37:18.371Z,22.20
2022-12-20T12:41:44.450Z,21.87
2022-12-20T12:45:58.404Z,21.57
2022-12-20T12:50:00.294Z,21.43
2022-12-20T12:54:37.543Z,20.93
2022-12-20T12:58:46.398Z,18.77
2022-12-20T13:02:51.606Z,17.43
2022-12-20T13:07:02.198Z,17.43
2022-12-20T13:11:04.131Z,18.30
2022-12-20T13:15:21.148Z,17.27
2022-12-20T13:19:25.836Z,17.50
2022-12-20T13:23:27.625Z,18.10
2022-12-20T13:27:37.250Z,18.03
2022-12-20T13:31:39.015Z,17.87
2022-12-20T13:35:55.494Z,18.27
2022-12-20T13:39:57.299Z,19.57
2022-12-20T13:44:15.540Z,18.90
2022-12-20T13:48:20.695Z,18.90
2022-12-20T13:52:28.850Z,20.73
2022-12-20T13:56:41.096Z,19.97
2022-12-20T14:00:43.033Z,19.80
2022-12-20T14:04:46.741Z,18.27
2022-12-20T14:08:50.900Z,19.20
2022-12-20T14:12:53.336Z,17.93
2022-12-20T14:16:55.353Z,17.67
2022-12-20T14:21:02.924Z,18.93
2022-12-20T14:25:05.751Z,18.87
2022-12-20T14:29:22.445Z,19.97
2022-12-20T14:33:30.124Z,18.53
2022-12-20T14:37:36.551Z,16.93
2022-12-20T14:41:44.061Z,18.63
2022-12-20T14:45:45.841Z,19.97
2022-12-20T14:50:21.206Z,18.47
2022-12-20T14:55:05.767Z,16.80
2022-12-20T14:59:00.828Z,17.87
2022-12-20T15:03:18.250Z,18.63
2022-12-20T15:07:31.024Z,18.20
2022-12-20T15:11:33.767Z,17.67
2022-12-20T15:15:35.806Z,17.70
2022-12-20T15:19:42.197Z,17.80
2022-12-20T15:23:47.786Z,18.47
2022-12-20T15:27:49.606Z,18.00
2022-12-20T15:31:52.608Z,18.47
2022-12-20T15:35:54.522Z,18.73
2022-12-20T15:39:56.389Z,17.90
2022-12-20T15:44:11.518Z,17.33
2022-12-20T15:48:17.652Z,17.47
2022-12-20T15:52:21.992Z,18.00
2022-12-20T15:56:24.887Z,18.93
2022-12-20T16:00:26.723Z,19.83
2022-12-20T16:04:34.565Z,19.27
2022-12-20T16:08:37.677Z,19.13
2022-12-20T16:12:39.608Z,18.83
2022-12-20T16:16:41.549Z,20.20
2022-12-20T16:20:43.788Z,20.10
2022-12-20T16:24:46.030Z,18.17
2022-12-20T16:28:48.949Z,19.07
2022-12-20T16:33:16.856Z,21.33
2022-12-20T16:37:27.266Z,21.80
2022-12-20T16:41:37.194Z,21.03
2022-12-20T16:45:51.477Z,21.57
2022-12-20T16:49:54.040Z,22.07
2022-12-20T16:59:00.117Z,20.90
2022-12-20T17:02:59.734Z,21.23
2022-12-20T17:07:11.775Z,21.47
2022-12-20T17:11:29.295Z,21.73
2022-12-20T17:15:39.032Z,23.67
2022-12-20T17:19:43.166Z,23.33
2022-12-20T17:23:56.528Z,20.53
2022-12-20T17:27:58.784Z,18.20
2022-12-20T17:32:05.949Z,18.77
2022-12-20T17:36:10.977Z,17.43
2022-12-20T17:40:16.434Z,18.97
2022-12-20T17:44:26.803Z,19.07
2022-12-20T17:48:34.724Z,17.10
2022-12-20T17:52:39.614Z,18.13
2022-12-20T17:56:41.470Z,15.87
2022-12-20T18:00:46.572Z,20.43
2022-12-20T18:04:48.570Z,19.00
2022-12-20T18:08:51.678Z,17.93
2022-12-20T18:12:53.535Z,18.73
2022-12-20T18:16:57.593Z,18.00
2022-12-20T18:21:09.357Z,18.60
2022-12-20T18:25:13.976Z,18.27
2022-12-20T18:29:18.033Z,18.67
2022-12-20T18:33:20.041Z,17.67
2022-12-20T18:37:21.893Z,19.10
2022-12-20T18:41:25.988Z,21.17
2022-12-20T18:45:30.271Z,20.37
2022-12-20T18:49:32.391Z,21.97
2022-12-20T18:53:44.688Z,21.80
2022-12-20T18:57:50.508Z,19.70
2022-12-20T19:01:59.375Z,21.27
2022-12-20T19:06:02.796Z,21.83
2022-12-20T19:10:11.446Z,20.57
2022-12-20T19:14:15.920Z,21.20
2022-12-20T19:18:20.647Z,21.23
2022-12-20T19:22:30.126Z,20.77
2022-12-20T19:26:39.576Z,20.90
2022-12-20T19:31:23.407Z,20.40
2022-12-20T19:35:56.694Z,20.27
2022-12-20T19:40:17.309Z,21.50
2022-12-20T19:44:49.352Z,20.03
2022-12-20T19:48:54.653Z,17.57
2022-12-20T19:53:11.726Z,15.83
2022-12-20T20:01:56.097Z,17.63
2022-12-20T20:06:33.506Z,16.40
2022-12-20T20:10:39.326Z,16.40
2022-12-20T20:14:46.234Z,17.20
2022-12-20T20:24:52.458Z,16.90
2022-12-20T20:30:21.821Z,18.30
2022-12-20T20:34:35.119Z,17.50
2022-12-20T20:38:39.751Z,17.20
2022-12-20T20:42:41.688Z,17.83
2022-12-20T20:46:43.629Z,16.60
2022-12-20T20:50:45.779Z,15.97
2022-12-20T20:54:47.608Z,18.17
2022-12-20T20:58:50.107Z,17.53
2022-12-20T21:03:03.778Z,17.00
2022-12-20T21:07:05.723Z,18.90
2022-12-20T21:11:08.293Z,17.23
2022-12-20T21:15:22.413Z,17.70
2022-12-20T21:19:24.982Z,17.43
2022-12-20T21:23:26.788Z,17.50
2022-12-20T21:27:28.723Z,18.13
2022-12-20T21:31:30.979Z,16.50
2022-12-20T21:35:32.853Z,17.53
2022-12-20T21:39:34.749Z,18.10
2022-12-20T21:43:36.820Z,16.20
2022-12-20T21:47:38.829Z,16.77
2022-12-20T21:51:40.573Z,16.17
2022-12-20T21:55:42.379Z,16.43
2022-12-20T21:59:44.159Z,16.60
2022-12-20T22:03:46.347Z,16.63
2022-12-20T22:07:48.730Z,19.10
2022-12-20T22:11:50.590Z,19.97
2022-12-20T22:15:52.419Z,20.10
2022-12-20T22:19:54.230Z,19.03
2022-12-20T22:23:57.376Z,20.63
2022-12-20T22:27:59.184Z,21.53
2022-12-20T22:32:01.111Z,19.03
2022-12-20T22:36:03.384Z,20.07
2022-12-20T22:40:06.404Z,20.47
2022-12-20T22:44:08.107Z,18.73
2022-12-20T22:48:09.839Z,18.63
2022-12-20T22:52:11.659Z,19.17
2022-12-20T22:56:14.360Z,18.30
2022-12-20T23:00:16.673Z,18.80
2022-12-20T23:04:18.484Z,16.00
2022-12-20T23:08:20.590Z,16.03
2022-12-20T23:12:40.800Z,16.03
2022-12-20T23:16:42.603Z,15.63
2022-12-20T23:21:10.684Z,15.20
2022-12-20T23:25:15.328Z,16.63
2022-12-20T23:29:17.195Z,15.60
2022-12-20T23:33:19.284Z,15.93
2022-12-20T23:37:21.073Z,15.43
2022-12-20T23:41:23.065Z,14.47
2022-12-20T23:45:24.877Z,15.70
2022-12-20T23:49:26.688Z,15.60
2022-12-20T23:53:28.606Z,15.63
2022-12-20T23:57:31.378Z,15.83
